2B3 weather

Parlin Field
Newport, New Hampshire, United States

Public forecast

Using degrees Fahrenheit for public forecast. Weather courtesy of forecast.io.

Closest aviation weather report (METAR) to Parlin Field

Closest report is Hartness State (Springfield) Airport, 14.6 nm (27.0 km) W. Retrieved 2019/10/14 15:54 UTC (51 minutes ago):

KVSF 141554Z AUTO 15007KT 10SM CLR 14/07 A2994 RMK AO2 SLP143 T01440072

Closest aviation forecast (TAF) to Parlin Field

Closest forecast is Lebanon Municipal Airport, 15.1 nm (28.0 km) NNW. Retrieved 2019/10/14 12:27 UTC (4 hours ago):

TAF KLEB 141124Z 1412/1512 00000KT P6SM BKN001 FM141320 20005KT P6SM SCT100 FM150000 00000KT P6SM FEW250 FM150700 00000KT 1/4SM FG VV001